createdAt,value
2023-10-05T00:14:34.907Z,11.9
2023-10-05T00:45:21.512Z,11.8
2023-10-05T01:00:43.828Z,11.8
2023-10-05T01:16:07.127Z,11.8
2023-10-05T01:31:30.427Z,11.8
2023-10-05T01:46:53.731Z,11.7
2023-10-05T02:02:17.031Z,11.6
2023-10-05T02:17:40.335Z,11.7
2023-10-05T02:33:03.640Z,11.9
2023-10-05T02:48:26.943Z,11.9
2023-10-05T03:03:50.243Z,12
2023-10-05T03:19:13.542Z,11.9
2023-10-05T03:34:36.842Z,11.9
2023-10-05T03:50:00.142Z,11.8
2023-10-05T04:05:23.441Z,11.9
2023-10-05T04:20:45.757Z,12
2023-10-05T04:36:09.056Z,12.1
2023-10-05T04:51:32.355Z,12
2023-10-05T05:06:55.622Z,12.3
2023-10-05T05:22:18.878Z,12.4
2023-10-05T05:37:42.135Z,12.3
2023-10-05T05:53:05.392Z,12.6
2023-10-05T06:08:28.648Z,12.8
2023-10-05T06:23:51.907Z,12.8
2023-10-05T06:39:15.163Z,13
2023-10-05T06:54:38.419Z,13.4
2023-10-05T07:10:01.677Z,13.5
2023-10-05T07:25:24.934Z,13.8
2023-10-05T07:40:47.208Z,14.5
2023-10-05T07:56:10.466Z,14.9
2023-10-05T08:11:33.723Z,15.8
2023-10-05T08:26:56.978Z,15.8
2023-10-05T08:42:20.235Z,15.5
2023-10-05T08:57:43.491Z,16.2
2023-10-05T09:13:06.746Z,16.4
2023-10-05T09:28:30.002Z,16.4
2023-10-05T09:43:53.257Z,16.2
2023-10-05T09:59:16.512Z,16.3
2023-10-05T10:00:39.921Z,16.4
2023-10-05T10:02:03.330Z,16.3
2023-10-05T10:03:26.736Z,16.4
2023-10-05T10:04:49.161Z,16.4
2023-10-05T10:06:12.570Z,16.5
2023-10-05T10:07:35.979Z,16.5
2023-10-05T10:08:59.388Z,16.5
2023-10-05T10:10:22.797Z,16.7
2023-10-05T10:11:46.202Z,16.6
2023-10-05T10:13:09.611Z,16.7
2023-10-05T10:14:33.020Z,16.8
2023-10-05T10:15:56.427Z,16.9
2023-10-05T10:17:19.834Z,16.9
2023-10-05T10:18:43.240Z,16.9
2023-10-05T10:20:06.649Z,17.1
2023-10-05T10:21:30.062Z,17.1
2023-10-05T10:22:52.484Z,17.3
2023-10-05T10:24:15.893Z,17.3
2023-10-05T10:25:39.302Z,17.3
2023-10-05T10:27:02.711Z,17.3
2023-10-05T10:28:26.120Z,17.4
2023-10-05T10:29:49.529Z,17.4
2023-10-05T10:31:12.936Z,17.3
2023-10-05T10:32:36.345Z,17.3
2023-10-05T10:33:59.751Z,17.3
2023-10-05T10:35:23.160Z,17.5
2023-10-05T10:36:46.569Z,17.5
2023-10-05T10:38:09.978Z,17.6
2023-10-05T10:39:33.387Z,17.7
2023-10-05T10:40:55.812Z,17.8
2023-10-05T10:42:19.221Z,17.9
2023-10-05T10:43:42.638Z,17.8
2023-10-05T10:45:06.047Z,17.7
2023-10-05T10:46:29.455Z,17.5
2023-10-05T10:47:52.864Z,17.5
2023-10-05T10:49:16.273Z,17.5
2023-10-05T10:50:39.682Z,17.6
2023-10-05T10:52:03.094Z,17.4
2023-10-05T10:53:26.502Z,17.4
2023-10-05T10:54:49.911Z,17.3
2023-10-05T10:56:13.322Z,17.4
2023-10-05T10:57:36.726Z,17.3
2023-10-05T10:58:59.151Z,17.3
2023-10-05T11:00:22.565Z,17.3
2023-10-05T11:01:45.974Z,17.3
2023-10-05T11:03:09.381Z,17.5
2023-10-05T11:04:32.795Z,17.6
2023-10-05T11:05:56.204Z,17.8
2023-10-05T11:07:19.613Z,17.9
2023-10-05T11:08:43.021Z,18.2
2023-10-05T11:10:06.430Z,18.2
2023-10-05T11:11:29.839Z,18.4
2023-10-05T11:12:53.248Z,18.6
2023-10-05T11:14:16.656Z,18.6
2023-10-05T11:15:40.065Z,18.8
2023-10-05T11:17:02.490Z,19
2023-10-05T11:18:25.899Z,19
2023-10-05T11:19:49.285Z,19.1
2023-10-05T11:21:12.712Z,19.2
2023-10-05T11:22:36.123Z,19.4
2023-10-05T11:23:59.532Z,19.6
2023-10-05T11:25:22.942Z,19.6
2023-10-05T11:26:46.349Z,19.6
2023-10-05T11:28:09.766Z,19.8
2023-10-05T11:29:33.172Z,19.9
2023-10-05T11:30:56.578Z,19.9
2023-10-05T11:32:19.985Z,20
2023-10-05T11:33:43.392Z,20.3
2023-10-05T11:35:05.816Z,20.3
2023-10-05T11:36:29.226Z,20.4
2023-10-05T11:37:52.635Z,20.6
2023-10-05T11:39:16.039Z,20.7
2023-10-05T11:40:39.454Z,20.8
2023-10-05T11:42:02.860Z,20.8
2023-10-05T11:43:26.268Z,20.7
2023-10-05T11:44:49.677Z,20.8
2023-10-05T11:46:13.085Z,20.8
2023-10-05T11:47:36.494Z,20.8
2023-10-05T11:48:59.902Z,21
2023-10-05T11:50:23.311Z,20.8
2023-10-05T11:51:46.720Z,20.6
2023-10-05T11:53:09.144Z,20.3
2023-10-05T11:54:32.550Z,20.1
2023-10-05T11:55:55.959Z,19.9
2023-10-05T11:57:19.368Z,19.9
2023-10-05T11:58:42.776Z,20
2023-10-05T12:00:06.185Z,20.1
2023-10-05T12:01:29.594Z,20.2
2023-10-05T12:02:53.000Z,20.3
2023-10-05T12:04:16.408Z,20.1
2023-10-05T12:05:39.817Z,20.2
2023-10-05T12:07:03.230Z,20.2
2023-10-05T12:08:26.639Z,20.3
2023-10-05T12:09:50.045Z,20.1
2023-10-05T12:11:12.467Z,20
2023-10-05T12:12:35.876Z,19.9
2023-10-05T12:13:59.283Z,20.1
2023-10-05T12:15:22.691Z,20
2023-10-05T12:16:46.100Z,20
2023-10-05T12:18:09.508Z,19.7
2023-10-05T12:19:32.917Z,19.7
2023-10-05T12:20:56.323Z,19.6
2023-10-05T12:22:19.732Z,19.7
2023-10-05T12:23:43.141Z,19.5
2023-10-05T12:25:06.550Z,19.7
2023-10-05T12:26:29.966Z,19.8
2023-10-05T12:27:53.373Z,19.9
2023-10-05T12:29:15.798Z,20
2023-10-05T12:30:39.206Z,20
2023-10-05T12:32:02.615Z,20.2
2023-10-05T12:33:26.021Z,20.2
2023-10-05T12:34:49.430Z,20.2
2023-10-05T12:36:12.838Z,20.5
2023-10-05T12:37:36.253Z,20.4
2023-10-05T12:38:59.661Z,20.5
2023-10-05T12:40:23.070Z,20.5
2023-10-05T12:41:46.476Z,20.3
2023-10-05T12:43:09.881Z,20.2
2023-10-05T12:44:33.287Z,19.9
2023-10-05T12:45:56.696Z,19.7
2023-10-05T12:47:19.116Z,19.6
2023-10-05T12:48:42.525Z,19.7
2023-10-05T12:50:05.934Z,19.6
2023-10-05T12:51:29.342Z,19.5
2023-10-05T12:52:52.751Z,19.6
2023-10-05T12:54:16.159Z,19.5
2023-10-05T12:55:39.568Z,19.4
2023-10-05T12:57:02.972Z,19.2
2023-10-05T12:58:26.381Z,19.1
2023-10-05T12:59:49.787Z,18.9
2023-10-05T13:01:13.196Z,18.8
2023-10-05T13:02:36.614Z,18.6
2023-10-05T13:04:00.023Z,18.5
2023-10-05T13:05:22.447Z,18.3
2023-10-05T13:06:45.856Z,18.2
2023-10-05T13:08:09.264Z,18.1
2023-10-05T13:09:32.682Z,18.2
2023-10-05T13:10:56.088Z,18
2023-10-05T13:12:19.497Z,18
2023-10-05T13:13:42.903Z,18
2023-10-05T13:15:06.312Z,18
2023-10-05T13:16:29.720Z,17.9
2023-10-05T13:17:53.127Z,17.8
2023-10-05T13:19:16.535Z,17.7
2023-10-05T13:20:39.942Z,17.7
2023-10-05T13:22:03.350Z,17.7
2023-10-05T13:23:25.775Z,17.6
2023-10-05T13:24:49.184Z,17.6
2023-10-05T13:26:12.593Z,17.6
2023-10-05T13:27:36.001Z,17.5
2023-10-05T13:28:59.409Z,17.5
2023-10-05T13:30:22.818Z,17.5
2023-10-05T13:31:46.232Z,17.5
2023-10-05T13:33:08.659Z,17.6
2023-10-05T13:34:32.068Z,17.7
2023-10-05T13:35:55.474Z,17.7
2023-10-05T13:37:18.881Z,17.6
2023-10-05T13:38:42.290Z,17.7
2023-10-05T13:40:05.698Z,17.7
2023-10-05T13:41:29.107Z,17.8
2023-10-05T13:42:52.513Z,17.8
2023-10-05T13:44:15.921Z,17.9
2023-10-05T13:45:39.330Z,17.9
2023-10-05T13:47:02.739Z,18.1
2023-10-05T13:48:26.149Z,18
2023-10-05T13:49:49.558Z,18.1
2023-10-05T13:51:11.980Z,18
2023-10-05T13:52:35.388Z,18
2023-10-05T13:53:58.797Z,18
2023-10-05T13:55:22.203Z,17.9
2023-10-05T13:56:45.610Z,17.9
2023-10-05T13:58:09.019Z,18
2023-10-05T13:59:32.428Z,17.9
2023-10-05T14:00:55.836Z,17.9
2023-10-05T14:02:19.245Z,17.8
2023-10-05T14:03:42.651Z,17.8
2023-10-05T14:05:06.067Z,17.8
2023-10-05T14:06:29.476Z,17.9
2023-10-05T14:07:52.884Z,17.9
2023-10-05T14:09:15.309Z,17.9
2023-10-05T14:10:38.715Z,17.9
2023-10-05T14:12:02.124Z,17.8
2023-10-05T14:13:25.532Z,17.8
2023-10-05T14:14:48.941Z,17.7
2023-10-05T14:16:12.350Z,17.7
2023-10-05T14:17:35.756Z,17.7
2023-10-05T14:18:59.169Z,17.7
2023-10-05T14:20:22.577Z,17.7
2023-10-05T14:21:45.983Z,17.7
2023-10-05T14:23:09.390Z,17.7
2023-10-05T14:24:32.798Z,17.8
2023-10-05T14:25:56.208Z,17.8
2023-10-05T14:27:18.633Z,17.7
2023-10-05T14:28:42.041Z,17.6
2023-10-05T14:30:05.449Z,17.5
2023-10-05T14:31:28.856Z,17.5
2023-10-05T14:32:52.264Z,17.5
2023-10-05T14:34:15.672Z,17.5
2023-10-05T14:35:39.081Z,17.5
2023-10-05T14:37:02.489Z,17.6
2023-10-05T14:38:25.898Z,17.4
2023-10-05T14:39:49.308Z,17.5
2023-10-05T14:41:12.716Z,17.4
2023-10-05T14:42:36.125Z,17.5
2023-10-05T14:43:59.533Z,17.5
2023-10-05T14:45:21.958Z,17.4
2023-10-05T14:46:45.364Z,17.3
2023-10-05T14:48:08.771Z,17.5
2023-10-05T14:49:32.183Z,17.4
2023-10-05T14:50:55.592Z,17.4
2023-10-05T14:52:19.001Z,17.4
2023-10-05T14:53:42.412Z,17.3
2023-10-05T14:55:05.821Z,17.4
2023-10-05T14:56:29.229Z,17.3
2023-10-05T14:57:52.638Z,17.3
2023-10-05T14:59:16.044Z,17.4
2023-10-05T15:00:39.457Z,17.3
2023-10-05T15:02:02.863Z,17.3
2023-10-05T15:03:25.288Z,17.4
2023-10-05T15:04:48.695Z,17.4
2023-10-05T15:06:12.103Z,17.3
2023-10-05T15:07:35.517Z,17.3
2023-10-05T15:08:58.926Z,17.2
2023-10-05T15:10:22.335Z,17.2
2023-10-05T15:11:45.743Z,17.2
2023-10-05T15:13:09.150Z,17.1
2023-10-05T15:14:32.556Z,17.1
2023-10-05T15:15:55.965Z,17.1
2023-10-05T15:17:19.372Z,17.1
2023-10-05T15:18:42.780Z,17.1
2023-10-05T15:20:06.185Z,17.1
2023-10-05T15:21:28.612Z,16.9
2023-10-05T15:22:52.020Z,17
2023-10-05T15:24:15.429Z,17.1
2023-10-05T15:25:38.838Z,17.1
2023-10-05T15:27:02.247Z,17
2023-10-05T15:28:25.655Z,17
2023-10-05T15:29:49.064Z,17
2023-10-05T15:31:12.471Z,17
2023-10-05T15:32:35.879Z,17.1
2023-10-05T15:33:59.286Z,17
2023-10-05T15:35:22.694Z,17
2023-10-05T15:36:46.101Z,16.9
2023-10-05T15:38:09.514Z,17
2023-10-05T15:39:31.937Z,16.9
2023-10-05T15:40:55.347Z,16.9
2023-10-05T15:42:18.756Z,16.9
2023-10-05T15:43:42.164Z,16.9
2023-10-05T15:45:05.573Z,16.9
2023-10-05T15:46:28.981Z,16.8
2023-10-05T15:47:52.396Z,16.9
2023-10-05T15:49:15.800Z,16.9
2023-10-05T15:50:39.209Z,16.8
2023-10-05T15:52:02.617Z,16.8
2023-10-05T15:53:26.026Z,16.9
2023-10-05T15:54:49.432Z,16.8
2023-10-05T15:56:12.838Z,16.8
2023-10-05T15:57:35.263Z,16.7
2023-10-05T15:58:58.669Z,16.9
2023-10-05T16:00:22.074Z,16.7
2023-10-05T16:01:45.480Z,16.7
2023-10-05T16:03:08.889Z,16.7
2023-10-05T16:04:32.296Z,16.7
2023-10-05T16:05:55.695Z,16.8
2023-10-05T16:07:19.123Z,16.8
2023-10-05T16:08:42.530Z,16.7
2023-10-05T16:10:05.938Z,16.7
2023-10-05T16:11:29.343Z,16.7
2023-10-05T16:12:52.749Z,16.6
2023-10-05T16:14:16.158Z,16.6
2023-10-05T16:15:38.583Z,16.7
2023-10-05T16:17:01.989Z,16.6
2023-10-05T16:18:25.395Z,16.6
2023-10-05T16:19:48.802Z,16.6
2023-10-05T16:21:12.206Z,16.6
2023-10-05T16:22:35.612Z,16.5
2023-10-05T16:23:59.019Z,16.6
2023-10-05T16:25:22.425Z,16.6
2023-10-05T16:26:45.834Z,16.5
2023-10-05T16:28:09.240Z,16.5
2023-10-05T16:29:32.649Z,16.5
2023-10-05T16:30:56.055Z,16.5
2023-10-05T16:32:19.461Z,16.5
2023-10-05T16:33:41.884Z,16.5
2023-10-05T16:35:05.290Z,16.4
2023-10-05T16:36:28.703Z,16.4
2023-10-05T16:37:52.111Z,16.4
2023-10-05T16:39:15.520Z,16.5
2023-10-05T16:40:38.926Z,16.4
2023-10-05T16:42:02.322Z,16.4
2023-10-05T16:43:25.739Z,16.4
2023-10-05T16:44:49.145Z,16.4
2023-10-05T16:46:12.551Z,16.4
2023-10-05T16:47:35.958Z,16.4
2023-10-05T16:48:59.366Z,16.3
2023-10-05T16:50:22.773Z,16.4
2023-10-05T16:51:45.195Z,16.3
2023-10-05T16:53:08.601Z,16.3
2023-10-05T16:54:32.009Z,16.4
2023-10-05T16:55:55.416Z,16.4
2023-10-05T16:57:18.822Z,16.3
2023-10-05T16:58:42.228Z,16.3
2023-10-05T17:00:05.680Z,16.2
2023-10-05T17:01:29.087Z,16.3
2023-10-05T17:02:52.493Z,16.3
2023-10-05T17:04:15.898Z,16.1
2023-10-05T17:05:39.304Z,16.2
2023-10-05T17:07:02.742Z,16.2
2023-10-05T17:08:26.203Z,16.2
2023-10-05T17:09:48.667Z,16.1
2023-10-05T17:11:12.115Z,16.1
2023-10-05T17:12:35.562Z,16.1
2023-10-05T17:13:59.016Z,16.1
2023-10-05T17:15:22.469Z,16.1
2023-10-05T17:16:45.916Z,16.1
2023-10-05T17:18:09.366Z,16.1
2023-10-05T17:19:32.815Z,16.1
2023-10-05T17:20:56.262Z,16.1
2023-10-05T17:22:19.710Z,16.1
2023-10-05T17:23:43.159Z,16.1
2023-10-05T17:25:06.610Z,16
2023-10-05T17:26:30.060Z,16
2023-10-05T17:27:52.525Z,16.2
2023-10-05T17:29:15.975Z,16.1
2023-10-05T17:30:39.430Z,16
2023-10-05T17:32:02.877Z,16.1
2023-10-05T17:33:26.329Z,16.1
2023-10-05T17:34:49.778Z,16.1
2023-10-05T17:36:13.225Z,16.1
2023-10-05T17:37:36.674Z,16.1
2023-10-05T17:39:00.122Z,16.1
2023-10-05T17:40:23.571Z,16
2023-10-05T17:41:47.019Z,16.1
2023-10-05T17:43:10.471Z,16.1
2023-10-05T17:44:33.920Z,16.1
2023-10-05T17:45:56.387Z,16.2
2023-10-05T17:47:19.835Z,16
2023-10-05T17:48:43.284Z,16
2023-10-05T17:50:06.733Z,16.2
2023-10-05T17:51:30.184Z,16
2023-10-05T17:52:53.633Z,16.1
2023-10-05T17:54:17.083Z,16
2023-10-05T17:55:40.534Z,16.1
2023-10-05T17:57:03.963Z,16.1
2023-10-05T17:58:27.431Z,16
2023-10-05T17:59:50.880Z,16
2023-10-05T18:01:14.329Z,16
2023-10-05T18:02:37.779Z,16
2023-10-05T18:04:00.244Z,16
2023-10-05T18:05:23.693Z,16
2023-10-05T18:06:47.143Z,15.9
2023-10-05T18:08:10.592Z,16
2023-10-05T18:09:34.041Z,16
2023-10-05T18:10:57.496Z,15.9
2023-10-05T18:12:19.967Z,15.9
2023-10-05T18:13:43.416Z,16
2023-10-05T18:15:06.865Z,15.9
2023-10-05T18:16:30.314Z,16
2023-10-05T18:17:53.767Z,15.9
2023-10-05T18:19:17.216Z,15.9
2023-10-05T18:20:40.666Z,16
2023-10-05T18:22:04.113Z,16
2023-10-05T18:23:27.562Z,16
2023-10-05T18:24:51.012Z,16
2023-10-05T18:26:14.459Z,15.9
2023-10-05T18:41:37.755Z,15.8
2023-10-05T18:57:01.049Z,15.8
2023-10-05T19:12:23.359Z,15.8
2023-10-05T19:27:46.654Z,15.8
2023-10-05T19:43:09.949Z,15.5
2023-10-05T19:58:33.245Z,15.7
2023-10-05T20:13:56.540Z,15.6
2023-10-05T20:29:19.835Z,15.3
2023-10-05T20:44:43.132Z,15.2
2023-10-05T21:00:06.428Z,15.3
2023-10-05T21:15:29.724Z,15.1
2023-10-05T21:30:53.019Z,14.6
2023-10-05T21:46:16.315Z,14.9
2023-10-05T22:01:39.610Z,14.8
2023-10-05T22:17:02.905Z,14.7
2023-10-05T22:32:25.218Z,14.8
2023-10-05T22:47:48.513Z,14.7
2023-10-05T23:03:11.812Z,14.8
2023-10-05T23:18:35.109Z,14.8
2023-10-05T23:33:58.405Z,14.8
2023-10-05T23:49:21.701Z,14.7
